sensor_id;sensor_type;location;lat;lon;timestamp;P1;durP1;ratioP1;P2;durP2;ratioP2
1276;SDS011;631;51.024;13.826;2023-06-05T00:01:34;11.07;;;10.47;;
1276;SDS011;631;51.024;13.826;2023-06-05T00:04:00;11.17;;;10.53;;
1276;SDS011;631;51.024;13.826;2023-06-05T00:06:26;10.90;;;10.40;;
1276;SDS011;631;51.024;13.826;2023-06-05T00:08:52;11.00;;;10.40;;
1276;SDS011;631;51.024;13.826;2023-06-05T00:11:17;11.20;;;10.50;;
1276;SDS011;631;51.024;13.826;2023-06-05T00:13:43;11.00;;;10.40;;
1276;SDS011;631;51.024;13.826;2023-06-05T00:16:08;10.83;;;10.13;;
1276;SDS011;631;51.024;13.826;2023-06-05T00:18:34;10.57;;;10.07;;
1276;SDS011;631;51.024;13.826;2023-06-05T00:20:59;11.10;;;10.50;;
1276;SDS011;631;51.024;13.826;2023-06-05T00:23:25;10.93;;;10.43;;
1276;SDS011;631;51.024;13.826;2023-06-05T00:25:51;11.07;;;10.53;;
1276;SDS011;631;51.024;13.826;2023-06-05T00:28:16;10.70;;;10.20;;
1276;SDS011;631;51.024;13.826;2023-06-05T00:30:42;11.47;;;10.77;;
1276;SDS011;631;51.024;13.826;2023-06-05T00:33:08;10.93;;;10.43;;
1276;SDS011;631;51.024;13.826;2023-06-05T00:35:34;11.43;;;10.83;;
1276;SDS011;631;51.024;13.826;2023-06-05T00:37:59;10.77;;;10.27;;
1276;SDS011;631;51.024;13.826;2023-06-05T00:40:25;11.50;;;10.80;;
1276;SDS011;631;51.024;13.826;2023-06-05T00:42:50;10.83;;;10.20;;
1276;SDS011;631;51.024;13.826;2023-06-05T00:45:16;11.33;;;10.80;;
1276;SDS011;631;51.024;13.826;2023-06-05T00:47:42;11.00;;;10.50;;
1276;SDS011;631;51.024;13.826;2023-06-05T00:50:08;11.03;;;10.53;;
1276;SDS011;631;51.024;13.826;2023-06-05T00:52:36;11.07;;;10.37;;
1276;SDS011;631;51.024;13.826;2023-06-05T00:55:03;11.67;;;10.97;;
1276;SDS011;631;51.024;13.826;2023-06-05T00:57:29;10.63;;;10.13;;
1276;SDS011;631;51.024;13.826;2023-06-05T00:59:55;10.60;;;10.10;;
1276;SDS011;631;51.024;13.826;2023-06-05T01:02:20;11.20;;;10.60;;
1276;SDS011;631;51.024;13.826;2023-06-05T01:04:46;11.07;;;10.47;;
1276;SDS011;631;51.024;13.826;2023-06-05T01:07:15;11.00;;;10.50;;
1276;SDS011;631;51.024;13.826;2023-06-05T01:09:42;11.10;;;10.50;;
1276;SDS011;631;51.024;13.826;2023-06-05T01:12:26;11.90;;;11.30;;
1276;SDS011;631;51.024;13.826;2023-06-05T01:14:57;11.30;;;10.80;;
1276;SDS011;631;51.024;13.826;2023-06-05T01:17:26;11.53;;;10.93;;
1276;SDS011;631;51.024;13.826;2023-06-05T01:19:54;11.70;;;11.00;;
1276;SDS011;631;51.024;13.826;2023-06-05T01:22:20;11.10;;;10.40;;
1276;SDS011;631;51.024;13.826;2023-06-05T01:24:46;11.57;;;10.80;;
1276;SDS011;631;51.024;13.826;2023-06-05T01:27:21;11.40;;;10.50;;
1276;SDS011;631;51.024;13.826;2023-06-05T01:32:57;11.40;;;10.80;;
1276;SDS011;631;51.024;13.826;2023-06-05T01:35:29;10.90;;;10.40;;
1276;SDS011;631;51.024;13.826;2023-06-05T01:37:58;11.00;;;10.50;;
1276;SDS011;631;51.024;13.826;2023-06-05T01:40:24;11.03;;;10.50;;
1276;SDS011;631;51.024;13.826;2023-06-05T01:42:52;11.43;;;10.73;;
1276;SDS011;631;51.024;13.826;2023-06-05T01:45:19;11.20;;;10.60;;
1276;SDS011;631;51.024;13.826;2023-06-05T01:47:45;11.47;;;10.87;;
1276;SDS011;631;51.024;13.826;2023-06-05T01:50:15;10.87;;;10.37;;
1276;SDS011;631;51.024;13.826;2023-06-05T01:52:41;11.67;;;11.07;;
1276;SDS011;631;51.024;13.826;2023-06-05T01:55:13;11.60;;;11.00;;
1276;SDS011;631;51.024;13.826;2023-06-05T01:57:41;10.77;;;10.27;;
1276;SDS011;631;51.024;13.826;2023-06-05T02:00:07;10.73;;;10.23;;
1276;SDS011;631;51.024;13.826;2023-06-05T02:02:38;10.60;;;10.10;;
1276;SDS011;631;51.024;13.826;2023-06-05T02:05:13;10.20;;;9.70;;
1276;SDS011;631;51.024;13.826;2023-06-05T02:07:40;10.93;;;10.43;;
1276;SDS011;631;51.024;13.826;2023-06-05T02:10:07;11.87;;;11.17;;
1276;SDS011;631;51.024;13.826;2023-06-05T02:12:34;10.70;;;10.20;;
1276;SDS011;631;51.024;13.826;2023-06-05T02:15:02;11.27;;;10.67;;
1276;SDS011;631;51.024;13.826;2023-06-05T02:17:28;11.33;;;10.73;;
1276;SDS011;631;51.024;13.826;2023-06-05T02:19:55;11.13;;;10.53;;
1276;SDS011;631;51.024;13.826;2023-06-05T02:22:20;10.47;;;10.00;;
1276;SDS011;631;51.024;13.826;2023-06-05T02:24:48;11.60;;;10.97;;
1276;SDS011;631;51.024;13.826;2023-06-05T02:27:16;10.83;;;10.23;;
1276;SDS011;631;51.024;13.826;2023-06-05T02:29:42;11.00;;;10.50;;
1276;SDS011;631;51.024;13.826;2023-06-05T02:32:08;11.23;;;10.67;;
1276;SDS011;631;51.024;13.826;2023-06-05T02:34:35;11.60;;;10.97;;
1276;SDS011;631;51.024;13.826;2023-06-05T02:37:00;11.30;;;10.70;;
1276;SDS011;631;51.024;13.826;2023-06-05T02:39:27;11.47;;;10.73;;
1276;SDS011;631;51.024;13.826;2023-06-05T02:41:55;11.00;;;10.50;;
1276;SDS011;631;51.024;13.826;2023-06-05T02:44:21;10.37;;;9.87;;
1276;SDS011;631;51.024;13.826;2023-06-05T02:46:47;11.30;;;10.60;;
1276;SDS011;631;51.024;13.826;2023-06-05T02:49:13;10.47;;;9.97;;
1276;SDS011;631;51.024;13.826;2023-06-05T02:51:38;11.77;;;11.03;;
1276;SDS011;631;51.024;13.826;2023-06-05T02:54:04;11.47;;;10.87;;
1276;SDS011;631;51.024;13.826;2023-06-05T02:56:29;11.00;;;10.40;;
1276;SDS011;631;51.024;13.826;2023-06-05T02:58:55;10.53;;;10.03;;
1276;SDS011;631;51.024;13.826;2023-06-05T03:01:22;11.20;;;10.60;;
1276;SDS011;631;51.024;13.826;2023-06-05T03:03:48;10.87;;;10.20;;
1276;SDS011;631;51.024;13.826;2023-06-05T03:06:14;9.63;;;9.13;;
1276;SDS011;631;51.024;13.826;2023-06-05T03:08:42;10.90;;;10.30;;
1276;SDS011;631;51.024;13.826;2023-06-05T03:11:09;10.33;;;9.83;;
1276;SDS011;631;51.024;13.826;2023-06-05T03:13:35;10.03;;;9.53;;
1276;SDS011;631;51.024;13.826;2023-06-05T03:16:00;10.23;;;9.63;;
1276;SDS011;631;51.024;13.826;2023-06-05T03:18:29;10.00;;;9.50;;
1276;SDS011;631;51.024;13.826;2023-06-05T03:20:55;10.30;;;9.80;;
1276;SDS011;631;51.024;13.826;2023-06-05T03:23:24;10.53;;;9.93;;
1276;SDS011;631;51.024;13.826;2023-06-05T03:25:52;9.97;;;9.47;;
1276;SDS011;631;51.024;13.826;2023-06-05T03:28:18;10.17;;;9.67;;
1276;SDS011;631;51.024;13.826;2023-06-05T03:30:44;10.20;;;9.60;;
1276;SDS011;631;51.024;13.826;2023-06-05T03:33:10;9.90;;;9.40;;
1276;SDS011;631;51.024;13.826;2023-06-05T03:35:36;10.60;;;10.00;;
1276;SDS011;631;51.024;13.826;2023-06-05T03:38:02;10.90;;;10.30;;
1276;SDS011;631;51.024;13.826;2023-06-05T03:40:28;10.40;;;9.90;;
1276;SDS011;631;51.024;13.826;2023-06-05T03:42:54;10.10;;;9.60;;
1276;SDS011;631;51.024;13.826;2023-06-05T03:45:19;10.23;;;9.63;;
1276;SDS011;631;51.024;13.826;2023-06-05T03:47:45;10.23;;;9.70;;
1276;SDS011;631;51.024;13.826;2023-06-05T03:50:13;10.07;;;9.53;;
1276;SDS011;631;51.024;13.826;2023-06-05T03:52:40;11.17;;;10.50;;
1276;SDS011;631;51.024;13.826;2023-06-05T03:55:06;10.93;;;10.43;;
1276;SDS011;631;51.024;13.826;2023-06-05T03:57:35;10.97;;;10.40;;
1276;SDS011;631;51.024;13.826;2023-06-05T04:00:03;10.90;;;10.30;;
1276;SDS011;631;51.024;13.826;2023-06-05T04:02:35;10.23;;;9.70;;
1276;SDS011;631;51.024;13.826;2023-06-05T04:05:02;10.40;;;9.90;;
1276;SDS011;631;51.024;13.826;2023-06-05T04:07:28;10.60;;;10.10;;
1276;SDS011;631;51.024;13.826;2023-06-05T04:09:54;10.03;;;9.50;;
1276;SDS011;631;51.024;13.826;2023-06-05T04:12:20;10.67;;;10.17;;
1276;SDS011;631;51.024;13.826;2023-06-05T04:14:46;10.43;;;9.93;;
1276;SDS011;631;51.024;13.826;2023-06-05T04:17:12;10.93;;;10.23;;
1276;SDS011;631;51.024;13.826;2023-06-05T04:19:38;9.80;;;9.23;;
1276;SDS011;631;51.024;13.826;2023-06-05T04:22:05;10.97;;;10.37;;
1276;SDS011;631;51.024;13.826;2023-06-05T04:24:31;10.37;;;9.77;;
1276;SDS011;631;51.024;13.826;2023-06-05T04:26:57;10.30;;;9.80;;
1276;SDS011;631;51.024;13.826;2023-06-05T04:29:24;10.90;;;10.10;;
1276;SDS011;631;51.024;13.826;2023-06-05T04:31:49;9.73;;;9.13;;
1276;SDS011;631;51.024;13.826;2023-06-05T04:34:15;10.30;;;9.80;;
1276;SDS011;631;51.024;13.826;2023-06-05T04:36:43;10.10;;;9.50;;
1276;SDS011;631;51.024;13.826;2023-06-05T04:39:09;10.80;;;10.20;;
1276;SDS011;631;51.024;13.826;2023-06-05T04:41:44;10.20;;;9.70;;
1276;SDS011;631;51.024;13.826;2023-06-05T04:44:14;11.43;;;10.77;;
1276;SDS011;631;51.024;13.826;2023-06-05T04:46:44;11.00;;;10.40;;
1276;SDS011;631;51.024;13.826;2023-06-05T04:49:11;10.30;;;9.80;;
1276;SDS011;631;51.024;13.826;2023-06-05T04:51:38;11.33;;;10.73;;
1276;SDS011;631;51.024;13.826;2023-06-05T04:54:04;11.50;;;10.80;;
1276;SDS011;631;51.024;13.826;2023-06-05T04:56:30;10.67;;;10.10;;
1276;SDS011;631;51.024;13.826;2023-06-05T04:59:00;11.60;;;10.90;;
1276;SDS011;631;51.024;13.826;2023-06-05T05:01:27;9.50;;;8.90;;
1276;SDS011;631;51.024;13.826;2023-06-05T05:03:52;10.40;;;9.90;;
1276;SDS011;631;51.024;13.826;2023-06-05T05:06:19;11.43;;;10.77;;
1276;SDS011;631;51.024;13.826;2023-06-05T05:08:46;11.53;;;10.90;;
1276;SDS011;631;51.024;13.826;2023-06-05T05:11:15;11.87;;;11.07;;
1276;SDS011;631;51.024;13.826;2023-06-05T05:13:44;11.13;;;10.50;;
1276;SDS011;631;51.024;13.826;2023-06-05T05:16:10;11.30;;;10.70;;
1276;SDS011;631;51.024;13.826;2023-06-05T05:18:39;10.83;;;10.30;;
1276;SDS011;631;51.024;13.826;2023-06-05T05:21:06;11.37;;;10.77;;
1276;SDS011;631;51.024;13.826;2023-06-05T05:23:32;12.33;;;11.63;;
1276;SDS011;631;51.024;13.826;2023-06-05T05:25:58;11.93;;;11.23;;
1276;SDS011;631;51.024;13.826;2023-06-05T05:28:24;11.73;;;11.13;;
1276;SDS011;631;51.024;13.826;2023-06-05T05:30:51;11.80;;;11.20;;
1276;SDS011;631;51.024;13.826;2023-06-05T05:33:17;12.00;;;11.30;;
1276;SDS011;631;51.024;13.826;2023-06-05T05:35:43;11.83;;;11.23;;
1276;SDS011;631;51.024;13.826;2023-06-05T05:38:09;11.63;;;10.93;;
1276;SDS011;631;51.024;13.826;2023-06-05T05:40:35;12.13;;;11.53;;
1276;SDS011;631;51.024;13.826;2023-06-05T05:43:01;12.03;;;11.27;;
1276;SDS011;631;51.024;13.826;2023-06-05T05:45:26;10.60;;;10.00;;
1276;SDS011;631;51.024;13.826;2023-06-05T05:47:52;11.43;;;10.73;;
1276;SDS011;631;51.024;13.826;2023-06-05T05:50:17;11.10;;;10.50;;
1276;SDS011;631;51.024;13.826;2023-06-05T05:52:43;10.20;;;9.70;;
1276;SDS011;631;51.024;13.826;2023-06-05T05:55:09;11.33;;;10.80;;
1276;SDS011;631;51.024;13.826;2023-06-05T05:57:35;11.10;;;10.50;;
1276;SDS011;631;51.024;13.826;2023-06-05T06:00:01;11.57;;;10.97;;
1276;SDS011;631;51.024;13.826;2023-06-05T06:02:30;12.10;;;11.50;;
1276;SDS011;631;51.024;13.826;2023-06-05T06:04:57;11.90;;;11.10;;
1276;SDS011;631;51.024;13.826;2023-06-05T06:07:22;12.40;;;11.60;;
1276;SDS011;631;51.024;13.826;2023-06-05T06:09:48;11.30;;;10.80;;
1276;SDS011;631;51.024;13.826;2023-06-05T06:12:13;11.93;;;11.27;;
1276;SDS011;631;51.024;13.826;2023-06-05T06:14:39;12.43;;;11.73;;
1276;SDS011;631;51.024;13.826;2023-06-05T06:17:05;12.00;;;11.30;;
1276;SDS011;631;51.024;13.826;2023-06-05T06:19:35;12.30;;;11.60;;
1276;SDS011;631;51.024;13.826;2023-06-05T06:22:00;11.60;;;11.00;;
1276;SDS011;631;51.024;13.826;2023-06-05T06:24:26;12.10;;;11.47;;
1276;SDS011;631;51.024;13.826;2023-06-05T06:26:51;12.50;;;11.80;;
1276;SDS011;631;51.024;13.826;2023-06-05T06:29:20;11.67;;;10.87;;
1276;SDS011;631;51.024;13.826;2023-06-05T06:31:48;12.13;;;11.50;;
1276;SDS011;631;51.024;13.826;2023-06-05T06:34:15;12.20;;;11.50;;
1276;SDS011;631;51.024;13.826;2023-06-05T06:36:41;12.37;;;11.67;;
1276;SDS011;631;51.024;13.826;2023-06-05T06:39:09;11.67;;;11.10;;
1276;SDS011;631;51.024;13.826;2023-06-05T06:41:36;11.63;;;11.03;;
1276;SDS011;631;51.024;13.826;2023-06-05T06:44:02;12.20;;;11.60;;
1276;SDS011;631;51.024;13.826;2023-06-05T06:46:29;11.30;;;10.70;;
1276;SDS011;631;51.024;13.826;2023-06-05T06:48:55;12.33;;;11.53;;
1276;SDS011;631;51.024;13.826;2023-06-05T06:51:20;10.67;;;10.17;;
1276;SDS011;631;51.024;13.826;2023-06-05T06:53:47;12.20;;;11.50;;
1276;SDS011;631;51.024;13.826;2023-06-05T06:56:13;11.63;;;11.00;;
1276;SDS011;631;51.024;13.826;2023-06-05T06:58:43;11.10;;;10.50;;
1276;SDS011;631;51.024;13.826;2023-06-05T07:01:09;11.33;;;10.73;;
1276;SDS011;631;51.024;13.826;2023-06-05T07:03:36;12.17;;;11.57;;
1276;SDS011;631;51.024;13.826;2023-06-05T07:06:03;12.37;;;11.67;;
1276;SDS011;631;51.024;13.826;2023-06-05T07:08:29;11.50;;;10.90;;
1276;SDS011;631;51.024;13.826;2023-06-05T07:10:54;10.83;;;10.33;;
1276;SDS011;631;51.024;13.826;2023-06-05T07:13:20;12.13;;;11.43;;
1276;SDS011;631;51.024;13.826;2023-06-05T07:15:47;11.97;;;11.37;;
1276;SDS011;631;51.024;13.826;2023-06-05T07:18:12;11.93;;;11.40;;
1276;SDS011;631;51.024;13.826;2023-06-05T07:20:38;11.47;;;10.77;;
1276;SDS011;631;51.024;13.826;2023-06-05T07:23:04;11.33;;;10.53;;
1276;SDS011;631;51.024;13.826;2023-06-05T07:25:29;11.87;;;11.30;;
1276;SDS011;631;51.024;13.826;2023-06-05T07:27:55;11.80;;;11.20;;
1276;SDS011;631;51.024;13.826;2023-06-05T07:30:20;12.37;;;11.70;;
1276;SDS011;631;51.024;13.826;2023-06-05T07:32:46;11.50;;;10.80;;
1276;SDS011;631;51.024;13.826;2023-06-05T07:35:12;12.00;;;11.40;;
1276;SDS011;631;51.024;13.826;2023-06-05T07:37:39;12.20;;;11.50;;
1276;SDS011;631;51.024;13.826;2023-06-05T07:40:05;11.77;;;11.10;;
1276;SDS011;631;51.024;13.826;2023-06-05T07:42:31;11.47;;;10.83;;
1276;SDS011;631;51.024;13.826;2023-06-05T07:44:57;12.33;;;11.73;;
1276;SDS011;631;51.024;13.826;2023-06-05T07:47:23;12.37;;;11.57;;
1276;SDS011;631;51.024;13.826;2023-06-05T07:50:01;11.50;;;10.80;;
1276;SDS011;631;51.024;13.826;2023-06-05T07:52:30;12.03;;;11.37;;
1276;SDS011;631;51.024;13.826;2023-06-05T07:54:56;11.80;;;11.10;;
1276;SDS011;631;51.024;13.826;2023-06-05T07:57:22;12.10;;;11.50;;
1276;SDS011;631;51.024;13.826;2023-06-05T07:59:52;11.40;;;10.80;;
1276;SDS011;631;51.024;13.826;2023-06-05T08:02:18;12.23;;;11.53;;
1276;SDS011;631;51.024;13.826;2023-06-05T08:04:45;12.40;;;11.60;;
1276;SDS011;631;51.024;13.826;2023-06-05T08:07:11;12.13;;;11.10;;
1276;SDS011;631;51.024;13.826;2023-06-05T08:09:37;11.50;;;10.90;;
1276;SDS011;631;51.024;13.826;2023-06-05T08:12:05;12.30;;;11.60;;
1276;SDS011;631;51.024;13.826;2023-06-05T08:14:32;12.07;;;11.47;;
1276;SDS011;631;51.024;13.826;2023-06-05T08:16:59;11.87;;;11.27;;
1276;SDS011;631;51.024;13.826;2023-06-05T08:19:25;10.90;;;10.40;;
1276;SDS011;631;51.024;13.826;2023-06-05T08:21:51;12.20;;;11.50;;
1276;SDS011;631;51.024;13.826;2023-06-05T08:24:19;11.67;;;10.97;;
1276;SDS011;631;51.024;13.826;2023-06-05T08:26:45;12.60;;;11.90;;
1276;SDS011;631;51.024;13.826;2023-06-05T08:29:11;10.67;;;10.17;;
1276;SDS011;631;51.024;13.826;2023-06-05T08:31:39;11.47;;;10.80;;
1276;SDS011;631;51.024;13.826;2023-06-05T08:34:05;11.83;;;11.07;;
1276;SDS011;631;51.024;13.826;2023-06-05T08:36:31;11.17;;;10.63;;
1276;SDS011;631;51.024;13.826;2023-06-05T08:38:58;11.60;;;11.00;;
1276;SDS011;631;51.024;13.826;2023-06-05T08:41:24;12.13;;;11.50;;
1276;SDS011;631;51.024;13.826;2023-06-05T08:43:50;11.93;;;11.20;;
1276;SDS011;631;51.024;13.826;2023-06-05T08:46:16;12.30;;;11.60;;
1276;SDS011;631;51.024;13.826;2023-06-05T08:48:46;11.30;;;10.80;;
1276;SDS011;631;51.024;13.826;2023-06-05T08:51:16;11.63;;;10.93;;
1276;SDS011;631;51.024;13.826;2023-06-05T08:53:46;11.00;;;10.40;;
1276;SDS011;631;51.024;13.826;2023-06-05T08:56:26;11.13;;;10.53;;
1276;SDS011;631;51.024;13.826;2023-06-05T08:58:52;11.90;;;11.30;;
1276;SDS011;631;51.024;13.826;2023-06-05T09:01:19;11.37;;;10.87;;
1276;SDS011;631;51.024;13.826;2023-06-05T09:03:45;11.60;;;11.00;;
1276;SDS011;631;51.024;13.826;2023-06-05T09:06:10;11.43;;;10.83;;
1276;SDS011;631;51.024;13.826;2023-06-05T09:08:36;11.83;;;11.23;;
1276;SDS011;631;51.024;13.826;2023-06-05T09:13:46;11.30;;;10.63;;
1276;SDS011;631;51.024;13.826;2023-06-05T09:16:12;11.73;;;11.23;;
1276;SDS011;631;51.024;13.826;2023-06-05T09:18:59;11.67;;;11.07;;
1276;SDS011;631;51.024;13.826;2023-06-05T09:21:25;11.23;;;10.73;;
1276;SDS011;631;51.024;13.826;2023-06-05T09:27:02;12.73;;;12.13;;
1276;SDS011;631;51.024;13.826;2023-06-05T09:29:40;13.07;;;12.27;;
1276;SDS011;631;51.024;13.826;2023-06-05T09:32:16;11.77;;;11.17;;
1276;SDS011;631;51.024;13.826;2023-06-05T09:34:54;12.33;;;11.73;;
1276;SDS011;631;51.024;13.826;2023-06-05T09:37:34;13.03;;;12.27;;
1276;SDS011;631;51.024;13.826;2023-06-05T09:40:00;13.37;;;12.67;;
1276;SDS011;631;51.024;13.826;2023-06-05T09:42:32;12.67;;;11.97;;
1276;SDS011;631;51.024;13.826;2023-06-05T09:44:59;13.13;;;12.13;;
1276;SDS011;631;51.024;13.826;2023-06-05T09:47:25;13.20;;;12.60;;
1276;SDS011;631;51.024;13.826;2023-06-05T09:49:51;12.97;;;12.37;;
1276;SDS011;631;51.024;13.826;2023-06-05T09:52:16;12.43;;;11.73;;
1276;SDS011;631;51.024;13.826;2023-06-05T09:54:43;12.57;;;11.87;;
1276;SDS011;631;51.024;13.826;2023-06-05T09:57:10;12.37;;;11.80;;
1276;SDS011;631;51.024;13.826;2023-06-05T09:59:44;12.90;;;12.30;;
1276;SDS011;631;51.024;13.826;2023-06-05T10:02:23;11.77;;;11.27;;
1276;SDS011;631;51.024;13.826;2023-06-05T10:04:54;12.67;;;11.90;;
1276;SDS011;631;51.024;13.826;2023-06-05T10:07:26;12.07;;;11.47;;
1276;SDS011;631;51.024;13.826;2023-06-05T10:09:52;12.63;;;11.93;;
1276;SDS011;631;51.024;13.826;2023-06-05T10:12:19;13.00;;;12.20;;
1276;SDS011;631;51.024;13.826;2023-06-05T10:14:45;12.47;;;11.87;;
1276;SDS011;631;51.024;13.826;2023-06-05T10:17:13;12.43;;;11.77;;
1276;SDS011;631;51.024;13.826;2023-06-05T10:19:43;11.37;;;10.87;;
1276;SDS011;631;51.024;13.826;2023-06-05T10:22:09;10.63;;;10.03;;
1276;SDS011;631;51.024;13.826;2023-06-05T10:24:37;11.43;;;10.73;;
1276;SDS011;631;51.024;13.826;2023-06-05T10:37:29;11.70;;;11.20;;
1276;SDS011;631;51.024;13.826;2023-06-05T10:39:56;11.80;;;11.20;;
1276;SDS011;631;51.024;13.826;2023-06-05T10:42:26;11.80;;;11.10;;
1276;SDS011;631;51.024;13.826;2023-06-05T10:44:52;13.23;;;12.47;;
1276;SDS011;631;51.024;13.826;2023-06-05T10:52:46;11.73;;;11.23;;
1276;SDS011;631;51.024;13.826;2023-06-05T10:55:14;11.20;;;10.70;;
1276;SDS011;631;51.024;13.826;2023-06-05T11:00:26;11.80;;;11.20;;
1276;SDS011;631;51.024;13.826;2023-06-05T11:02:55;11.67;;;11.17;;
1276;SDS011;631;51.024;13.826;2023-06-05T11:05:22;13.77;;;13.07;;
1276;SDS011;631;51.024;13.826;2023-06-05T11:07:47;13.70;;;13.10;;
1276;SDS011;631;51.024;13.826;2023-06-05T11:10:34;12.80;;;12.20;;
1276;SDS011;631;51.024;13.826;2023-06-05T11:13:00;12.57;;;11.87;;
1276;SDS011;631;51.024;13.826;2023-06-05T11:15:36;12.87;;;12.33;;
1276;SDS011;631;51.024;13.826;2023-06-05T11:20:51;12.37;;;11.77;;
1276;SDS011;631;51.024;13.826;2023-06-05T11:23:17;12.47;;;11.87;;
1276;SDS011;631;51.024;13.826;2023-06-05T11:25:43;11.57;;;10.97;;
1276;SDS011;631;51.024;13.826;2023-06-05T11:28:09;11.33;;;10.73;;
1276;SDS011;631;51.024;13.826;2023-06-05T11:30:43;11.80;;;11.30;;
1276;SDS011;631;51.024;13.826;2023-06-05T11:33:10;12.60;;;12.00;;
1276;SDS011;631;51.024;13.826;2023-06-05T11:35:40;12.77;;;12.17;;
1276;SDS011;631;51.024;13.826;2023-06-05T11:38:08;11.80;;;11.20;;
1276;SDS011;631;51.024;13.826;2023-06-05T11:40:35;12.73;;;12.13;;
1276;SDS011;631;51.024;13.826;2023-06-05T11:43:02;11.80;;;11.00;;
1276;SDS011;631;51.024;13.826;2023-06-05T11:45:29;12.20;;;11.70;;
1276;SDS011;631;51.024;13.826;2023-06-05T11:48:04;12.20;;;11.70;;
1276;SDS011;631;51.024;13.826;2023-06-05T11:50:38;11.50;;;11.00;;
1276;SDS011;631;51.024;13.826;2023-06-05T11:53:11;11.10;;;10.60;;
1276;SDS011;631;51.024;13.826;2023-06-05T11:55:36;11.80;;;11.30;;
1276;SDS011;631;51.024;13.826;2023-06-05T12:01:04;10.70;;;10.20;;
1276;SDS011;631;51.024;13.826;2023-06-05T12:03:31;11.17;;;10.67;;
1276;SDS011;631;51.024;13.826;2023-06-05T12:06:00;12.10;;;11.50;;
1276;SDS011;631;51.024;13.826;2023-06-05T12:08:27;11.23;;;10.63;;
1276;SDS011;631;51.024;13.826;2023-06-05T12:10:55;11.27;;;10.67;;
1276;SDS011;631;51.024;13.826;2023-06-05T12:13:45;12.17;;;11.67;;
1276;SDS011;631;51.024;13.826;2023-06-05T12:16:11;12.37;;;11.77;;
1276;SDS011;631;51.024;13.826;2023-06-05T12:18:37;11.60;;;10.90;;
1276;SDS011;631;51.024;13.826;2023-06-05T12:21:02;11.30;;;10.80;;
1276;SDS011;631;51.024;13.826;2023-06-05T12:23:30;11.87;;;11.27;;
1276;SDS011;631;51.024;13.826;2023-06-05T12:26:03;11.73;;;11.13;;
1276;SDS011;631;51.024;13.826;2023-06-05T12:28:29;11.20;;;10.70;;
1276;SDS011;631;51.024;13.826;2023-06-05T12:30:56;11.77;;;11.27;;
1276;SDS011;631;51.024;13.826;2023-06-05T12:33:22;12.30;;;11.70;;
1276;SDS011;631;51.024;13.826;2023-06-05T12:36:02;12.13;;;11.53;;
1276;SDS011;631;51.024;13.826;2023-06-05T12:38:38;10.90;;;10.40;;
1276;SDS011;631;51.024;13.826;2023-06-05T12:41:05;11.40;;;10.90;;
1276;SDS011;631;51.024;13.826;2023-06-05T12:43:32;12.30;;;11.80;;
1276;SDS011;631;51.024;13.826;2023-06-05T12:45:58;11.30;;;10.80;;
1276;SDS011;631;51.024;13.826;2023-06-05T12:48:23;10.50;;;10.10;;
1276;SDS011;631;51.024;13.826;2023-06-05T12:50:50;11.67;;;11.17;;
1276;SDS011;631;51.024;13.826;2023-06-05T12:53:16;11.10;;;10.60;;
1276;SDS011;631;51.024;13.826;2023-06-05T12:55:41;10.90;;;10.40;;
1276;SDS011;631;51.024;13.826;2023-06-05T12:58:07;11.60;;;11.00;;
1276;SDS011;631;51.024;13.826;2023-06-05T13:00:33;11.53;;;10.97;;
1276;SDS011;631;51.024;13.826;2023-06-05T13:02:59;11.50;;;10.90;;
1276;SDS011;631;51.024;13.826;2023-06-05T13:05:24;11.80;;;11.30;;
1276;SDS011;631;51.024;13.826;2023-06-05T13:07:50;13.30;;;12.40;;
1276;SDS011;631;51.024;13.826;2023-06-05T13:10:20;12.07;;;11.47;;
1276;SDS011;631;51.024;13.826;2023-06-05T13:12:45;12.80;;;12.20;;
1276;SDS011;631;51.024;13.826;2023-06-05T13:15:11;12.57;;;11.97;;
1276;SDS011;631;51.024;13.826;2023-06-05T13:17:38;12.57;;;11.97;;
1276;SDS011;631;51.024;13.826;2023-06-05T13:20:04;11.40;;;10.90;;
1276;SDS011;631;51.024;13.826;2023-06-05T13:22:36;11.47;;;10.97;;
1276;SDS011;631;51.024;13.826;2023-06-05T13:25:02;11.73;;;11.23;;
1276;SDS011;631;51.024;13.826;2023-06-05T13:27:29;12.10;;;11.60;;
1276;SDS011;631;51.024;13.826;2023-06-05T13:29:55;12.00;;;11.50;;
1276;SDS011;631;51.024;13.826;2023-06-05T13:32:20;12.00;;;11.30;;
1276;SDS011;631;51.024;13.826;2023-06-05T13:34:46;13.10;;;12.40;;
1276;SDS011;631;51.024;13.826;2023-06-05T13:37:12;13.00;;;12.30;;
1276;SDS011;631;51.024;13.826;2023-06-05T13:39:37;12.50;;;11.80;;
1276;SDS011;631;51.024;13.826;2023-06-05T13:42:03;12.17;;;11.60;;
1276;SDS011;631;51.024;13.826;2023-06-05T13:44:29;11.47;;;10.97;;
1276;SDS011;631;51.024;13.826;2023-06-05T13:46:55;11.63;;;11.13;;
1276;SDS011;631;51.024;13.826;2023-06-05T13:49:21;11.93;;;11.33;;
1276;SDS011;631;51.024;13.826;2023-06-05T13:51:46;12.63;;;11.93;;
1276;SDS011;631;51.024;13.826;2023-06-05T13:54:12;11.30;;;10.80;;
1276;SDS011;631;51.024;13.826;2023-06-05T13:56:38;12.40;;;11.90;;
1276;SDS011;631;51.024;13.826;2023-06-05T13:59:03;11.83;;;11.33;;
1276;SDS011;631;51.024;13.826;2023-06-05T14:01:29;11.60;;;11.00;;
1276;SDS011;631;51.024;13.826;2023-06-05T14:03:54;12.33;;;11.73;;
1276;SDS011;631;51.024;13.826;2023-06-05T14:06:20;12.57;;;11.97;;
1276;SDS011;631;51.024;13.826;2023-06-05T14:08:46;12.60;;;12.10;;
1276;SDS011;631;51.024;13.826;2023-06-05T14:11:12;12.50;;;11.90;;
1276;SDS011;631;51.024;13.826;2023-06-05T14:13:38;12.70;;;12.00;;
1276;SDS011;631;51.024;13.826;2023-06-05T14:16:04;12.20;;;11.60;;
1276;SDS011;631;51.024;13.826;2023-06-05T14:18:30;13.33;;;12.43;;
1276;SDS011;631;51.024;13.826;2023-06-05T14:20:56;13.50;;;12.80;;
1276;SDS011;631;51.024;13.826;2023-06-05T14:23:22;13.03;;;12.40;;
1276;SDS011;631;51.024;13.826;2023-06-05T14:25:49;12.77;;;12.10;;
1276;SDS011;631;51.024;13.826;2023-06-05T14:28:15;12.73;;;11.87;;
1276;SDS011;631;51.024;13.826;2023-06-05T14:30:40;13.00;;;12.40;;
1276;SDS011;631;51.024;13.826;2023-06-05T14:33:06;12.17;;;11.60;;
1276;SDS011;631;51.024;13.826;2023-06-05T14:35:32;12.20;;;11.60;;
1276;SDS011;631;51.024;13.826;2023-06-05T14:37:57;12.90;;;12.20;;
1276;SDS011;631;51.024;13.826;2023-06-05T14:40:23;11.90;;;11.40;;
1276;SDS011;631;51.024;13.826;2023-06-05T14:42:50;12.87;;;12.17;;
1276;SDS011;631;51.024;13.826;2023-06-05T14:45:15;12.33;;;11.73;;
1276;SDS011;631;51.024;13.826;2023-06-05T14:47:41;11.47;;;10.97;;
1276;SDS011;631;51.024;13.826;2023-06-05T14:50:08;12.70;;;11.90;;
1276;SDS011;631;51.024;13.826;2023-06-05T14:52:34;12.50;;;11.90;;
1276;SDS011;631;51.024;13.826;2023-06-05T14:55:00;12.27;;;11.47;;
1276;SDS011;631;51.024;13.826;2023-06-05T14:57:29;12.80;;;12.20;;
1276;SDS011;631;51.024;13.826;2023-06-05T14:59:55;12.60;;;12.00;;
1276;SDS011;631;51.024;13.826;2023-06-05T15:02:21;11.57;;;10.97;;
1276;SDS011;631;51.024;13.826;2023-06-05T15:04:48;11.90;;;11.30;;
1276;SDS011;631;51.024;13.826;2023-06-05T15:07:17;11.70;;;11.10;;
1276;SDS011;631;51.024;13.826;2023-06-05T15:09:44;11.87;;;11.27;;
1276;SDS011;631;51.024;13.826;2023-06-05T15:12:11;12.10;;;11.50;;
1276;SDS011;631;51.024;13.826;2023-06-05T15:14:36;13.23;;;12.53;;
1276;SDS011;631;51.024;13.826;2023-06-05T15:17:02;12.20;;;11.50;;
1276;SDS011;631;51.024;13.826;2023-06-05T15:19:28;13.27;;;12.67;;
1276;SDS011;631;51.024;13.826;2023-06-05T15:21:53;12.80;;;12.10;;